Welcome to the New NWS' Forecast!
Most changes are behind the scenes, but click here for differences you might notice.

Terminal Aerodrome Forecast (TAF)

Issued by National Weather Service (NWS)

                            
315 
FTUS42 KKEY 160011 AAA
TAFMTH
TAF AMD
KMTH 160011Z 1600/1624 10010KT P6SM SCT025 BKN110
      TEMPO 1600/1604 15012G19KT 3SM SHRA BKN020=